createdAt,value
2018-08-13T00:01:37.563Z,42.10
2018-08-13T00:04:05.788Z,41.70
2018-08-13T00:06:33.994Z,41.90
2018-08-13T00:09:02.239Z,42.00
2018-08-13T00:11:36.762Z,41.70
2018-08-13T00:14:05.056Z,41.50
2018-08-13T00:16:33.279Z,41.50
2018-08-13T00:19:01.499Z,41.70
2018-08-13T00:21:29.687Z,41.90
2018-08-13T00:23:57.918Z,41.60
2018-08-13T00:26:26.140Z,41.60
2018-08-13T00:28:54.342Z,41.60
2018-08-13T00:31:22.590Z,41.40
2018-08-13T00:33:50.760Z,41.30
2018-08-13T00:36:18.936Z,41.20
2018-08-13T00:38:47.230Z,41.20
2018-08-13T00:41:15.500Z,41.30
2018-08-13T00:43:43.749Z,41.60
2018-08-13T00:46:11.950Z,41.70
2018-08-13T00:48:40.177Z,41.70
2018-08-13T00:51:08.395Z,42.00
2018-08-13T00:53:36.644Z,42.10
2018-08-13T00:56:04.887Z,42.10
2018-08-13T00:58:33.069Z,42.20
2018-08-13T01:01:01.270Z,42.30
2018-08-13T01:03:29.487Z,42.40
2018-08-13T01:05:57.716Z,42.40
2018-08-13T01:08:25.899Z,42.50
2018-08-13T01:10:54.127Z,42.50
2018-08-13T01:13:22.456Z,42.70
2018-08-13T01:15:50.736Z,42.60
2018-08-13T01:18:18.953Z,42.60
2018-08-13T01:20:47.175Z,42.90
2018-08-13T01:23:15.386Z,43.00
2018-08-13T01:25:43.615Z,43.20
2018-08-13T01:28:11.817Z,43.70
2018-08-13T01:30:40.142Z,43.70
2018-08-13T01:33:08.358Z,43.90
2018-08-13T01:35:36.555Z,44.00
2018-08-13T01:38:04.982Z,44.00
2018-08-13T01:40:33.214Z,43.70
2018-08-13T01:43:01.472Z,43.50
2018-08-13T01:45:29.796Z,43.10
2018-08-13T01:47:57.967Z,42.90
2018-08-13T01:50:26.231Z,42.70
2018-08-13T01:52:54.459Z,42.60
2018-08-13T01:55:22.746Z,42.50
2018-08-13T01:57:51.073Z,42.40
2018-08-13T02:00:19.258Z,42.50
2018-08-13T02:02:47.471Z,42.60
2018-08-13T02:05:15.866Z,42.60
2018-08-13T02:07:44.129Z,42.60
2018-08-13T02:10:13.010Z,42.70
2018-08-13T02:12:41.333Z,42.70
2018-08-13T02:15:09.594Z,42.70
2018-08-13T02:17:37.855Z,42.80
2018-08-13T02:20:07.165Z,42.60
2018-08-13T02:22:35.484Z,42.60
2018-08-13T02:25:04.389Z,42.60
2018-08-13T02:27:32.583Z,42.70
2018-08-13T02:30:00.827Z,43.30
2018-08-13T02:32:29.162Z,42.60
2018-08-13T02:34:57.533Z,42.40
2018-08-13T02:37:25.714Z,42.30
2018-08-13T02:39:53.914Z,42.10
2018-08-13T02:42:22.121Z,41.90
2018-08-13T02:44:50.422Z,41.80
2018-08-13T02:47:18.640Z,41.80
2018-08-13T02:49:46.855Z,41.80
2018-08-13T02:52:15.030Z,41.80
2018-08-13T02:54:43.247Z,41.80
2018-08-13T02:57:11.487Z,42.40
2018-08-13T02:59:39.747Z,41.80
2018-08-13T03:02:08.130Z,41.90
2018-08-13T03:04:36.525Z,42.10
2018-08-13T03:07:04.701Z,42.20
2018-08-13T03:09:39.401Z,42.10
2018-08-13T03:12:07.603Z,42.20
2018-08-13T03:14:35.844Z,42.30
2018-08-13T03:17:04.110Z,42.30
2018-08-13T03:19:32.375Z,42.20
2018-08-13T03:22:00.651Z,42.10
2018-08-13T03:24:28.887Z,42.10
2018-08-13T03:26:58.041Z,42.10
2018-08-13T03:29:26.315Z,42.30
2018-08-13T03:31:54.551Z,42.60
2018-08-13T03:34:23.003Z,42.80
2018-08-13T03:36:51.243Z,42.90
2018-08-13T03:39:19.493Z,43.20
2018-08-13T03:41:47.747Z,43.40
2018-08-13T03:44:16.008Z,43.60
2018-08-13T03:46:44.302Z,43.90
2018-08-13T03:49:12.531Z,43.90
2018-08-13T03:51:41.591Z,44.10
2018-08-13T03:54:10.668Z,44.80
2018-08-13T03:56:39.659Z,45.60
2018-08-13T03:59:08.676Z,47.10
2018-08-13T04:01:38.206Z,48.70
2018-08-13T04:04:07.414Z,48.20
2018-08-13T04:06:35.691Z,49.20
2018-08-13T04:09:06.413Z,49.60
2018-08-13T04:11:34.688Z,50.30
2018-08-13T04:14:03.812Z,50.70
2018-08-13T04:16:32.062Z,51.40
2018-08-13T04:19:00.290Z,51.70
2018-08-13T04:21:31.524Z,51.80
2018-08-13T04:23:59.868Z,52.70
2018-08-13T04:26:28.078Z,52.00
2018-08-13T04:28:56.285Z,52.20
2018-08-13T04:31:24.522Z,52.20
2018-08-13T04:33:52.873Z,52.30
2018-08-13T04:36:21.102Z,52.60
2018-08-13T04:38:49.338Z,52.60
2018-08-13T04:41:17.637Z,53.20
2018-08-13T04:43:45.855Z,53.60
2018-08-13T04:46:14.102Z,54.00
2018-08-13T04:48:42.371Z,54.30
2018-08-13T04:51:10.611Z,54.40
2018-08-13T04:53:38.838Z,55.10
2018-08-13T04:56:07.098Z,56.00
2018-08-13T04:58:35.362Z,56.80
2018-08-13T05:01:03.586Z,57.30
2018-08-13T05:03:32.054Z,57.60
2018-08-13T05:06:00.343Z,58.10
2018-08-13T05:08:28.620Z,58.40
2018-08-13T05:10:56.850Z,58.30
2018-08-13T05:13:25.098Z,58.80
2018-08-13T05:15:53.315Z,59.00
2018-08-13T05:18:21.582Z,59.50
2018-08-13T05:20:49.842Z,59.80
2018-08-13T05:23:18.087Z,60.20
2018-08-13T05:25:46.309Z,61.10
2018-08-13T05:28:14.608Z,62.00
2018-08-13T05:30:42.855Z,62.30
2018-08-13T05:33:11.191Z,63.00
2018-08-13T05:35:39.439Z,63.40
2018-08-13T05:38:07.712Z,63.00
2018-08-13T05:40:35.944Z,63.00
2018-08-13T05:43:04.207Z,63.40
2018-08-13T05:45:32.439Z,64.20
2018-08-13T05:48:00.675Z,64.90
2018-08-13T05:50:28.923Z,64.90
2018-08-13T05:52:57.175Z,65.60
2018-08-13T05:55:25.451Z,66.00
2018-08-13T05:57:53.774Z,66.00
2018-08-13T06:00:21.989Z,66.40
2018-08-13T06:02:50.340Z,66.70
2018-08-13T06:05:18.583Z,67.10
2018-08-13T06:07:46.818Z,68.10
2018-08-13T06:10:15.064Z,69.10
2018-08-13T06:12:43.418Z,70.00
2018-08-13T06:15:12.767Z,70.50
2018-08-13T06:17:41.058Z,71.20
2018-08-13T06:20:13.984Z,72.30
2018-08-13T06:22:43.437Z,72.70
2018-08-13T06:25:12.677Z,73.20
2018-08-13T06:27:40.954Z,73.60
2018-08-13T06:30:13.905Z,74.00
2018-08-13T06:32:42.486Z,74.50
2018-08-13T06:35:11.756Z,74.40
2018-08-13T06:37:40.462Z,74.30
2018-08-13T06:40:08.891Z,74.80
2018-08-13T06:42:37.363Z,75.20
2018-08-13T06:45:06.065Z,75.80
2018-08-13T06:47:34.310Z,76.50
2018-08-13T06:50:02.583Z,76.70
2018-08-13T06:52:30.795Z,77.30
2018-08-13T06:54:59.163Z,77.70
2018-08-13T06:57:27.415Z,78.30
2018-08-13T06:59:55.611Z,79.20
2018-08-13T07:02:23.859Z,80.10
2018-08-13T07:04:52.083Z,81.00
2018-08-13T07:07:20.306Z,81.40
2018-08-13T07:09:48.722Z,81.60
2018-08-13T07:12:16.966Z,81.80
2018-08-13T07:14:45.198Z,81.90
2018-08-13T07:17:13.458Z,82.50
2018-08-13T07:19:41.708Z,82.80
2018-08-13T07:22:10.020Z,83.10
2018-08-13T07:24:38.282Z,83.30
2018-08-13T07:27:06.535Z,83.80
2018-08-13T07:29:35.000Z,84.50
2018-08-13T07:32:03.279Z,84.90
2018-08-13T07:34:31.482Z,85.30
2018-08-13T07:36:59.737Z,85.70
2018-08-13T07:39:28.123Z,86.10
2018-08-13T07:41:56.274Z,86.30
2018-08-13T07:44:24.505Z,86.60
2018-08-13T07:46:52.742Z,86.90
2018-08-13T07:49:21.050Z,86.90
2018-08-13T07:51:49.314Z,86.50
2018-08-13T07:54:17.611Z,86.00
2018-08-13T07:56:45.981Z,86.00
2018-08-13T07:59:14.206Z,85.10
2018-08-13T08:01:42.464Z,84.00
2018-08-13T08:04:10.752Z,83.20
2018-08-13T08:06:39.019Z,82.50
2018-08-13T08:09:09.514Z,80.70
2018-08-13T08:11:37.692Z,80.20
2018-08-13T08:14:06.241Z,79.40
2018-08-13T08:16:34.567Z,79.50
2018-08-13T08:19:02.805Z,79.30
2018-08-13T08:21:31.917Z,79.20
2018-08-13T08:24:00.330Z,78.30
2018-08-13T08:26:28.625Z,77.60
2018-08-13T08:28:56.915Z,77.20
2018-08-13T08:31:25.111Z,75.80
2018-08-13T08:33:53.439Z,75.10
2018-08-13T08:36:21.842Z,74.30
2018-08-13T08:38:50.172Z,74.20
2018-08-13T08:41:18.447Z,73.80
2018-08-13T08:43:46.698Z,73.30
2018-08-13T08:46:14.906Z,72.50
2018-08-13T08:48:43.155Z,72.70
2018-08-13T08:51:11.360Z,72.20
2018-08-13T08:53:40.895Z,71.30
2018-08-13T08:56:09.059Z,70.70
2018-08-13T08:58:37.307Z,70.60
2018-08-13T09:01:05.518Z,70.30
2018-08-13T09:03:33.782Z,70.10
2018-08-13T09:06:02.051Z,69.60
2018-08-13T09:08:30.339Z,69.90
2018-08-13T09:10:58.691Z,69.90
2018-08-13T09:13:26.940Z,69.90
2018-08-13T09:15:55.126Z,70.50
2018-08-13T09:18:34.632Z,70.20
2018-08-13T09:21:14.078Z,70.00
2018-08-13T09:23:53.649Z,70.10
2018-08-13T09:26:33.259Z,70.70
2018-08-13T09:29:12.890Z,71.20
2018-08-13T09:32:21.436Z,71.80
2018-08-13T09:35:06.260Z,72.10
2018-08-13T09:37:34.557Z,72.10
2018-08-13T09:40:02.868Z,72.30
2018-08-13T09:42:31.183Z,72.60
2018-08-13T09:44:59.578Z,73.00
2018-08-13T09:47:27.844Z,73.20
2018-08-13T09:49:56.059Z,73.70
2018-08-13T09:52:24.308Z,74.20
2018-08-13T09:54:52.532Z,74.90
2018-08-13T09:57:20.756Z,75.10
2018-08-13T09:59:49.040Z,74.90
2018-08-13T10:02:17.583Z,74.60
2018-08-13T10:04:45.910Z,73.80
2018-08-13T10:07:14.167Z,73.10
2018-08-13T10:09:42.405Z,72.80
2018-08-13T10:12:10.674Z,72.90
2018-08-13T10:14:39.097Z,73.00
2018-08-13T10:17:07.464Z,72.80
2018-08-13T10:19:35.718Z,72.80
2018-08-13T10:22:03.987Z,72.60
2018-08-13T10:24:32.270Z,71.10
2018-08-13T10:27:00.494Z,70.60
2018-08-13T10:29:28.726Z,69.80
2018-08-13T10:31:57.089Z,68.60
2018-08-13T10:34:25.306Z,68.10
2018-08-13T10:36:53.632Z,67.50
2018-08-13T10:39:21.936Z,67.40
2018-08-13T10:41:50.227Z,67.10
2018-08-13T10:44:18.650Z,67.30
2018-08-13T10:46:46.873Z,66.80
2018-08-13T10:49:15.122Z,67.00
2018-08-13T10:51:43.411Z,66.70
2018-08-13T10:54:11.677Z,66.00
2018-08-13T10:56:39.866Z,64.80
2018-08-13T10:59:08.228Z,63.30
2018-08-13T11:01:36.592Z,63.10
2018-08-13T11:04:05.018Z,61.80
2018-08-13T11:06:33.275Z,60.80
2018-08-13T11:09:01.515Z,60.20
2018-08-13T11:11:29.812Z,58.60
2018-08-13T11:13:58.236Z,59.40
2018-08-13T11:16:26.506Z,59.90
2018-08-13T11:18:54.906Z,60.70
2018-08-13T11:21:23.278Z,62.30
2018-08-13T11:23:51.584Z,63.40
2018-08-13T11:26:19.875Z,65.00
2018-08-13T11:28:48.155Z,67.10
2018-08-13T11:31:16.500Z,68.60
2018-08-13T11:33:44.772Z,70.70
2018-08-13T11:36:13.002Z,72.70
2018-08-13T11:38:41.674Z,73.90
2018-08-13T11:41:09.887Z,75.60
2018-08-13T11:43:38.312Z,76.50
2018-08-13T11:46:06.534Z,77.40
2018-08-13T11:48:34.776Z,76.60
2018-08-13T11:51:03.019Z,78.10
2018-08-13T11:53:31.270Z,78.80
2018-08-13T11:55:59.500Z,79.20
2018-08-13T11:58:27.768Z,79.40
2018-08-13T12:00:56.035Z,80.50
2018-08-13T12:03:24.272Z,81.70
2018-08-13T12:05:52.515Z,82.70
2018-08-13T12:08:20.811Z,82.60
2018-08-13T12:10:49.022Z,83.70
2018-08-13T12:13:17.404Z,85.30
2018-08-13T12:15:45.663Z,85.70
2018-08-13T12:18:13.892Z,86.30
2018-08-13T12:20:42.131Z,87.90
2018-08-13T12:23:10.379Z,88.30
2018-08-13T12:25:38.642Z,89.70
2018-08-13T12:28:06.950Z,90.30
2018-08-13T12:30:35.223Z,91.00
2018-08-13T12:33:03.606Z,91.70
2018-08-13T12:35:31.839Z,92.50
2018-08-13T12:38:00.082Z,92.80
2018-08-13T12:40:28.478Z,93.10
2018-08-13T12:42:56.751Z,93.70
2018-08-13T12:45:24.972Z,93.90
2018-08-13T12:47:53.387Z,93.70
2018-08-13T12:50:21.790Z,93.80
2018-08-13T12:52:51.134Z,93.60
2018-08-13T12:55:19.424Z,93.60
2018-08-13T12:57:47.648Z,93.20
2018-08-13T13:00:17.031Z,92.90
2018-08-13T13:02:45.270Z,91.80
2018-08-13T13:05:14.581Z,90.30
2018-08-13T13:07:42.861Z,87.60
2018-08-13T13:10:12.952Z,84.40
2018-08-13T13:12:41.672Z,82.30
2018-08-13T13:15:11.462Z,81.20
2018-08-13T13:17:39.906Z,81.10
2018-08-13T13:20:10.154Z,80.30
2018-08-13T13:22:38.399Z,81.50
2018-08-13T13:25:06.818Z,81.00
2018-08-13T13:27:35.371Z,80.70
2018-08-13T13:30:04.607Z,81.00
2018-08-13T13:32:32.858Z,81.50
2018-08-13T13:35:01.238Z,82.40
2018-08-13T13:37:29.464Z,83.20
2018-08-13T13:39:57.704Z,83.80
2018-08-13T13:42:25.979Z,84.20
2018-08-13T13:44:54.247Z,84.40
2018-08-13T13:47:22.446Z,85.10
2018-08-13T13:49:50.699Z,85.10
2018-08-13T13:52:19.386Z,84.70
2018-08-13T13:54:47.616Z,82.30
2018-08-13T13:57:16.000Z,80.10
2018-08-13T13:59:44.178Z,78.70
2018-08-13T14:02:12.407Z,79.80
2018-08-13T14:04:40.803Z,80.40
2018-08-13T14:07:09.214Z,81.10
2018-08-13T14:09:37.431Z,80.70
2018-08-13T14:12:05.705Z,73.30
2018-08-13T14:14:34.039Z,71.70
2018-08-13T14:17:02.246Z,71.20
2018-08-13T14:19:30.495Z,68.80
2018-08-13T14:21:58.866Z,69.30
2018-08-13T14:24:27.104Z,69.90
2018-08-13T14:26:55.363Z,69.20
2018-08-13T14:29:23.632Z,68.40
2018-08-13T14:31:51.883Z,68.70
2018-08-13T14:34:20.556Z,69.30
2018-08-13T14:36:48.772Z,70.50
2018-08-13T14:39:16.999Z,72.00
2018-08-13T14:41:45.227Z,72.30
2018-08-13T14:44:13.458Z,73.10
2018-08-13T14:46:41.720Z,71.70
2018-08-13T14:49:09.950Z,70.70
2018-08-13T14:51:38.199Z,70.50
2018-08-13T14:54:06.586Z,67.40
2018-08-13T14:56:34.792Z,58.70
2018-08-13T14:59:03.079Z,56.50
2018-08-13T15:01:31.326Z,56.50
2018-08-13T15:03:59.627Z,57.40
2018-08-13T15:06:27.855Z,58.10
2018-08-13T15:08:56.086Z,54.60
2018-08-13T15:11:28.550Z,51.10
2018-08-13T15:13:56.906Z,50.40
2018-08-13T15:16:25.091Z,51.00
2018-08-13T15:18:53.394Z,52.50
2018-08-13T15:21:21.612Z,54.80
2018-08-13T15:23:49.963Z,56.70
2018-08-13T15:26:18.233Z,58.60
2018-08-13T15:28:46.499Z,60.30
2018-08-13T15:31:14.989Z,61.90
2018-08-13T15:33:43.207Z,61.70
2018-08-13T15:36:11.440Z,58.50
2018-08-13T15:38:39.674Z,56.60
2018-08-13T15:41:07.971Z,55.50
2018-08-13T15:43:36.243Z,56.50
2018-08-13T15:46:04.513Z,57.30
2018-08-13T15:48:32.820Z,58.70
2018-08-13T15:51:01.070Z,59.40
2018-08-13T15:53:29.547Z,57.40
2018-08-13T15:55:57.764Z,54.80
2018-08-13T15:58:25.994Z,54.40
2018-08-13T16:00:54.336Z,52.20
2018-08-13T16:03:22.546Z,51.30
2018-08-13T16:05:57.479Z,50.10
2018-08-13T16:08:25.700Z,50.90
2018-08-13T16:10:53.946Z,51.80
2018-08-13T16:13:22.190Z,52.30
2018-08-13T16:15:50.481Z,53.20
2018-08-13T16:18:18.719Z,54.90
2018-08-13T16:20:46.974Z,56.00
2018-08-13T16:23:15.451Z,57.20
2018-08-13T16:25:43.671Z,56.60
2018-08-13T16:28:11.911Z,57.00
2018-08-13T16:30:40.130Z,57.70
2018-08-13T16:33:08.418Z,58.30
2018-08-13T16:35:36.972Z,59.00
2018-08-13T16:38:05.513Z,59.70
2018-08-13T16:40:33.823Z,61.10
2018-08-13T16:43:02.098Z,62.50
2018-08-13T16:45:30.575Z,63.60
2018-08-13T16:47:58.794Z,64.70
2018-08-13T16:50:28.782Z,65.80
2018-08-13T16:52:57.449Z,66.40
2018-08-13T16:55:26.566Z,67.00
2018-08-13T16:57:54.785Z,67.10
2018-08-13T17:00:24.717Z,67.60
2018-08-13T17:02:53.033Z,68.30
2018-08-13T17:05:21.347Z,70.20
2018-08-13T17:07:49.698Z,70.40
2018-08-13T17:10:21.011Z,71.00
2018-08-13T17:12:49.614Z,72.00
2018-08-13T17:15:18.055Z,73.10
2018-08-13T17:17:47.870Z,74.20
2018-08-13T17:20:17.731Z,75.60
2018-08-13T17:22:45.954Z,76.60
2018-08-13T17:25:15.175Z,78.10
2018-08-13T17:27:43.732Z,79.70
2018-08-13T17:30:14.245Z,80.90
2018-08-13T17:32:42.646Z,81.90
2018-08-13T17:35:10.997Z,83.00
2018-08-13T17:37:39.822Z,84.20
2018-08-13T17:40:10.744Z,85.60
2018-08-13T17:42:39.276Z,85.90
2018-08-13T17:45:08.467Z,86.50
2018-08-13T17:47:36.994Z,87.30
2018-08-13T17:50:06.351Z,88.30
2018-08-13T17:52:34.622Z,88.80
2018-08-13T17:55:02.914Z,88.80
2018-08-13T17:57:31.174Z,87.30
2018-08-13T17:59:59.450Z,86.90
2018-08-13T18:02:27.889Z,87.60
2018-08-13T18:04:56.052Z,88.60
2018-08-13T18:07:24.435Z,88.70
2018-08-13T18:09:52.697Z,88.00
2018-08-13T18:12:21.011Z,88.10
2018-08-13T18:14:49.447Z,88.50
2018-08-13T18:17:17.694Z,88.80
2018-08-13T18:19:45.957Z,88.60
2018-08-13T18:22:14.152Z,88.40
2018-08-13T18:24:42.423Z,89.20
2018-08-13T18:27:10.691Z,88.60
2018-08-13T18:29:38.966Z,87.30
2018-08-13T18:32:07.787Z,87.60
2018-08-13T18:34:36.018Z,88.20
2018-08-13T18:37:04.335Z,89.40
2018-08-13T18:39:32.580Z,90.30
2018-08-13T18:42:00.815Z,90.80
2018-08-13T18:44:29.127Z,91.20
2018-08-13T18:46:57.403Z,91.40
2018-08-13T18:49:25.688Z,91.60
2018-08-13T18:51:53.889Z,91.90
2018-08-13T18:54:22.136Z,92.10
2018-08-13T18:56:50.430Z,92.00
2018-08-13T18:59:18.895Z,92.20
2018-08-13T19:01:48.183Z,92.20
2018-08-13T19:04:16.455Z,92.60
2018-08-13T19:06:44.710Z,92.80
2018-08-13T19:09:13.649Z,92.80
2018-08-13T19:11:43.352Z,92.80
2018-08-13T19:14:12.265Z,93.00
2018-08-13T19:16:41.235Z,93.20
2018-08-13T19:19:10.190Z,93.00
2018-08-13T19:21:39.315Z,92.90
2018-08-13T19:24:08.265Z,93.00
2018-08-13T19:26:37.158Z,93.00
2018-08-13T19:29:05.467Z,93.40
2018-08-13T19:31:33.770Z,93.80
2018-08-13T19:34:02.246Z,94.30
2018-08-13T19:36:30.803Z,94.60
2018-08-13T19:38:59.759Z,94.70
2018-08-13T19:41:28.681Z,94.80
2018-08-13T19:43:57.511Z,94.80
2018-08-13T19:46:26.344Z,94.80
2018-08-13T19:48:55.531Z,94.70
2018-08-13T19:51:24.572Z,94.80
2018-08-13T19:53:53.082Z,95.30
2018-08-13T19:56:21.873Z,95.30
2018-08-13T19:58:50.876Z,95.40
2018-08-13T20:01:20.001Z,95.30
2018-08-13T20:03:48.891Z,95.30
2018-08-13T20:06:17.142Z,95.20
2018-08-13T20:08:45.970Z,95.30
2018-08-13T20:11:14.812Z,95.00
2018-08-13T20:13:43.757Z,94.90
2018-08-13T20:16:13.114Z,95.10
2018-08-13T20:18:41.459Z,95.40
2018-08-13T20:21:10.304Z,95.50
2018-08-13T20:23:39.241Z,95.50
2018-08-13T20:26:08.058Z,95.60
2018-08-13T20:28:37.003Z,96.00
2018-08-13T20:31:05.774Z,96.30
2018-08-13T20:33:35.114Z,96.50
2018-08-13T20:36:03.399Z,96.70
2018-08-13T20:38:31.649Z,96.80
2018-08-13T20:40:59.934Z,97.10
2018-08-13T20:43:28.355Z,97.20
2018-08-13T20:45:56.595Z,97.30
2018-08-13T20:48:24.846Z,97.60
2018-08-13T20:50:53.111Z,97.70
2018-08-13T20:53:21.359Z,97.80
2018-08-13T20:55:49.667Z,98.00
2018-08-13T20:58:17.895Z,98.10
2018-08-13T21:00:46.179Z,98.30
2018-08-13T21:03:14.407Z,98.40
2018-08-13T21:05:42.899Z,98.50
2018-08-13T21:08:11.187Z,98.80
2018-08-13T21:10:39.422Z,98.90
2018-08-13T21:13:07.735Z,98.80
2018-08-13T21:15:35.930Z,98.90
2018-08-13T21:18:04.302Z,99.00
2018-08-13T21:20:32.539Z,99.30
2018-08-13T21:23:00.790Z,99.20
2018-08-13T21:25:29.407Z,99.20
2018-08-13T21:27:57.611Z,99.30
2018-08-13T21:30:25.927Z,99.40
2018-08-13T21:32:54.164Z,99.90
2018-08-13T21:35:23.919Z,99.40
2018-08-13T21:37:52.391Z,99.60
2018-08-13T21:40:20.666Z,99.60
2018-08-13T21:42:49.659Z,99.70
2018-08-13T21:45:17.841Z,99.90
2018-08-13T21:47:46.095Z,99.90
2018-08-13T21:50:16.815Z,99.90
2018-08-13T21:52:45.371Z,99.90
2018-08-13T21:55:13.687Z,99.90
2018-08-13T21:57:41.954Z,99.90
2018-08-13T22:00:36.671Z,99.90
2018-08-13T22:03:05.218Z,99.90
2018-08-13T22:05:33.517Z,99.90
2018-08-13T22:08:01.782Z,99.90
2018-08-13T22:10:30.035Z,99.90
2018-08-13T22:12:58.327Z,99.90
2018-08-13T22:15:31.837Z,99.90
2018-08-13T22:18:04.531Z,99.90
2018-08-13T22:20:33.846Z,99.90
2018-08-13T22:23:02.569Z,99.90
2018-08-13T22:25:32.202Z,99.90
2018-08-13T22:28:00.938Z,99.90
2018-08-13T22:30:30.315Z,99.90
2018-08-13T22:32:58.576Z,99.90
2018-08-13T22:35:26.904Z,99.90
2018-08-13T22:37:55.271Z,99.90
2018-08-13T22:40:23.521Z,99.90
2018-08-13T22:42:51.843Z,99.90
2018-08-13T22:45:21.296Z,99.90
2018-08-13T22:47:49.604Z,99.90
2018-08-13T22:50:17.875Z,99.90
2018-08-13T22:52:46.179Z,99.90
2018-08-13T22:55:15.771Z,99.90
2018-08-13T22:57:44.059Z,99.90
2018-08-13T23:00:13.985Z,99.90
2018-08-13T23:02:42.660Z,99.90
2018-08-13T23:05:20.044Z,99.90
2018-08-13T23:07:48.321Z,99.90
2018-08-13T23:10:18.802Z,99.90
2018-08-13T23:12:48.338Z,99.90
2018-08-13T23:15:17.105Z,99.90
2018-08-13T23:17:45.510Z,99.90
2018-08-13T23:20:22.363Z,99.90
2018-08-13T23:22:52.879Z,99.90
2018-08-13T23:25:21.359Z,99.90
2018-08-13T23:27:50.759Z,99.90
2018-08-13T23:30:19.088Z,99.90
2018-08-13T23:32:48.390Z,99.90
2018-08-13T23:35:17.507Z,99.90
2018-08-13T23:37:45.959Z,99.90
2018-08-13T23:40:14.323Z,99.90
2018-08-13T23:42:42.606Z,99.90
2018-08-13T23:45:13.152Z,99.90
2018-08-13T23:47:41.449Z,99.90
2018-08-13T23:50:11.643Z,99.90
2018-08-13T23:52:40.224Z,99.90
2018-08-13T23:55:10.839Z,99.90
2018-08-13T23:57:39.103Z,99.90
